Latest Weather Observations for Toowoomba

IDQ60901

Issued at 7:11 am EST Wednesday 22 February 2017 (issued every 10 minutes, with the page automatically refreshed every 10 minutes)

About weather observations | Map of Brisbane area stations | Latest observations for Brisbane area | Other Formats
Station Details ID: 041529 Name: TOOWOOMBA AIRPORT Lat: -27.54 Lon: 151.91 Height: 640.9 m
Data from the previous 72 hours. | See also: Recent months at Toowoomba
Date/Time
EST
Temp
°C
App
Temp
°C
Dew
Point
°C
Rel
Hum
%
Delta-T
°C
Wind Press
QNH
hPa
Press
MSL
hPa
Rain since
9am
mm
Dir  Spd
km/h
Gust
km/h
Spd
kts
Gust
kts
22/07:00am 18.7 15.0 15.0 79 2.2 E 28 37 15 20 1022.3 1018.7 0.0
22/06:30am 18.2 14.1 14.9 81 2.0 E 30 37 16 20 1021.9 1018.3 0.0
22/06:00am 18.0 14.2 14.7 81 2.0 E 28 33 15 18 1021.5 1018.0 0.0
22/05:30am 18.0 14.3 15.1 83 1.7 E 28 37 15 20 1021.3 1017.8 0.0
22/05:00am 18.2 14.5 15.1 82 1.9 E 28 37 15 20 1020.9 1017.3 0.0
22/04:30am 18.2 13.8 15.1 82 1.9 E 32 39 17 21 1020.7 1017.1 0.0
22/04:00am 18.2 13.6 15.1 82 1.9 E 33 43 18 23 1020.4 1016.8 0.0
22/03:30am 18.2 12.8 15.1 82 1.9 E 37 44 20 24 1020.3 1016.7 0.0
22/03:00am 18.2 13.3 15.3 83 1.7 E 35 43 19 23 1020.0 1016.5 0.0
22/02:30am 18.2 13.7 15.3 83 1.7 E 33 39 18 21 1020.3 1016.7 0.0
22/02:00am 18.3 13.4 15.2 82 1.9 E 35 44 19 24 1020.7 1017.1 0.0
22/01:30am 18.4 13.9 15.5 83 1.8 E 33 43 18 23 1020.8 1017.2 0.0
22/01:00am 18.6 13.3 15.3 81 2.0 E 37 44 20 24 1020.8 1017.2 0.0
22/12:30am 18.8 13.9 15.3 80 2.1 E 35 48 19 26 1021.0 1017.4 0.0
22/12:00am 19.0 14.4 15.1 78 2.3 E 33 43 18 23 1021.1 1017.6 0.0
 
Date/Time
EST
Temp
°C
App
Temp
°C
Dew
Point
°C
Rel
Hum
%
Delta-T
°C
Wind Press
QNH
hPa
Press
MSL
hPa
Rain since
9am
mm
Dir  Spd
km/h
Gust
km/h
Spd
kts
Gust
kts
21/11:30pm 19.1 14.6 15.0 77 2.5 E 32 39 17 21 1021.3 1017.8 0.0
21/11:16pm 19.3 14.7 15.0 76 2.6 E 33 52 18 28 1021.2 1017.7 0.0
21/11:00pm 19.4 13.6 14.9 75 2.7 E 39 54 21 29 1021.1 1017.6 0.0
21/10:30pm 19.6 14.1 14.6 73 3.0 E 37 52 20 28 1021.2 1017.7 0.0
21/10:00pm 19.8 14.2 14.4 71 3.2 E 37 50 20 27 1021.3 1017.8 0.0
21/09:30pm 20.1 14.9 14.5 70 3.4 E 35 50 19 27 1021.3 1017.8 0.0
21/09:00pm 20.3 15.2 14.7 70 3.4 E 35 46 19 25 1021.6 1018.1 0.0
21/08:30pm 20.6 15.3 16.4 77 2.6 E 39 50 21 27 1021.2 1017.7 0.0
21/08:00pm 21.2 16.2 17.0 77 2.6 E 39 50 21 27 1020.9 1017.3 0.0
21/07:30pm 21.8 17.2 16.1 70 3.5 E 35 46 19 25 1020.7 1017.1 0.0
21/07:00pm 22.3 18.1 16.3 69 3.7 E 33 44 18 24 1020.5 1016.9 0.0
21/06:30pm 23.2 18.8 16.7 67 4.1 E 35 44 19 24 1020.0 1016.5 0.0
21/06:00pm 24.2 20.7 16.5 62 4.8 E 30 43 16 23 1019.8 1016.3 0.0
21/05:30pm 25.2 21.3 15.5 55 6.0 E 30 39 16 21 1019.4 1015.8 0.0
21/05:00pm 26.0 22.2 14.8 50 6.9 E 28 43 15 23 1018.9 1015.3 0.0
21/04:30pm 27.3 23.0 10.9 36 9.6 E 24 32 13 17 1018.8 1015.2 0.0
21/04:00pm 27.8 24.6 11.4 36 9.6 E 19 28 10 15 1018.8 1015.2 0.0
21/03:30pm 28.0 25.0 12.4 38 9.3 E 20 32 11 17 1018.9 1015.3 0.0
21/03:00pm 28.8 26.3 13.5 39 9.3 E 19 32 10 17 1018.9 1015.3 0.0
21/02:30pm 27.3 24.5 12.5 40 8.8 ESE 19 26 10 14 1019.1 1015.5 0.0
21/02:00pm 27.2 24.3 12.4 40 8.8 ESE 19 28 10 15 1019.1 1015.5 0.0
21/01:30pm 27.5 25.0 12.3 39 9.1 ENE 17 22 9 12 1019.6 1016.0 0.0
21/01:00pm 27.2 25.1 13.5 42 8.3 NE 17 24 9 13 1019.8 1016.3 0.0
21/12:30pm 26.7 24.5 12.0 40 8.7 ENE 15 26 8 14 1019.9 1016.4 0.0
21/12:00pm 26.9 24.8 13.6 44 8.1 ESE 17 24 9 13 1020.3 1016.7 0.0
21/11:30am 26.2 25.0 14.0 47 7.4 ESE 13 22 7 12 1020.6 1017.0 0.0
21/11:00am 25.9 24.7 16.2 55 6.1 E 17 26 9 14 1020.9 1017.3 0.0
21/10:30am 25.4 23.8 16.5 58 5.6 ENE 20 28 11 15 1021.1 1017.6 0.0
21/10:00am 24.2 22.6 16.5 62 4.8 E 20 28 11 15 1021.3 1017.8 0.0
21/09:30am 23.6 21.0 16.9 66 4.2 E 26 35 14 19 1021.3 1017.8 0.0
21/09:00am 23.2 20.6 17.7 71 3.5 E 28 33 15 18 1021.2 1017.7 0.0
21/08:30am 21.8 19.6 17.8 78 2.5 E 26 32 14 17 1021.2 1017.7 0.0
21/08:00am 20.6 19.1 17.8 84 1.8 E 22 32 12 17 1020.8 1017.2 0.0
21/07:39am 20.5 19.3 18.3 87 1.4 E 22 30 12 16 1020.6 1017.0 0.0
21/07:30am 19.8 18.1 18.1 90 1.1 E 24 30 13 16 1020.5 1016.9 0.0
21/07:00am 19.6 19.0 18.9 96 0.4 E 20 24 11 13 1020.3 1016.7 0.0
21/06:52am 19.4 18.7 18.7 96 0.4 E 20 24 11 13 1020.1 1016.6 0.0
21/06:30am 19.2 17.8 18.7 97 0.3 E 24 28 13 15 1019.8 1016.3 0.0
21/06:00am 18.8 17.6 18.3 97 0.3 E 22 30 12 16 1019.4 1015.8 0.0
21/05:30am 18.6 17.2 17.9 96 0.4 E 22 28 12 15 1018.9 1015.3 0.0
21/05:00am 18.8 17.1 18.1 96 0.4 E 24 30 13 16 1018.4 1014.9 0.0
21/04:30am 18.8 17.5 18.1 96 0.4 E 22 28 12 15 1018.1 1014.5 0.0
21/04:00am 18.8 17.1 18.1 96 0.4 E 24 30 13 16 1017.7 1014.1 0.0
21/03:30am 18.9 17.2 18.2 96 0.4 E 24 28 13 15 1017.7 1014.1 0.0
21/03:00am 18.9 16.8 18.1 95 0.5 E 26 30 14 16 1017.5 1013.9 0.0
21/02:30am 18.9 16.7 17.9 94 0.6 E 26 30 14 16 1017.5 1013.9 0.0
21/02:00am 19.0 17.3 18.2 95 0.5 E 24 30 13 16 1017.6 1014.0 0.0
21/01:30am 19.1 17.0 18.1 94 0.6 E 26 32 14 17 1017.6 1014.0 0.0
21/01:00am 19.0 17.3 18.0 94 0.6 E 24 30 13 16 1018.1 1014.5 0.0
21/12:30am 19.1 17.3 17.9 93 0.8 E 24 28 13 15 1018.3 1014.8 0.0
21/12:00am 19.3 17.6 18.0 92 0.8 E 24 32 13 17 1018.7 1015.1 0.0
 
Date/Time
EST
Temp
°C
App
Temp
°C
Dew
Point
°C
Rel
Hum
%
Delta-T
°C
Wind Press
QNH
hPa
Press
MSL
hPa
Rain since
9am
mm
Dir  Spd
km/h
Gust
km/h
Spd
kts
Gust
kts
20/11:30pm 19.3 16.6 17.6 90 1.1 E 28 33 15 18 1018.6 1015.0 0.0
20/11:00pm 19.3 16.9 16.3 83 1.8 ESE 24 30 13 16 1018.7 1015.1 0.0
20/10:30pm 19.8 16.4 14.8 73 3.0 E 26 32 14 17 1018.6 1015.0 0.0
20/10:00pm 20.2 17.0 13.2 64 4.1 E 22 28 12 15 1018.7 1015.1 0.0
20/09:30pm 20.7 18.1 11.9 57 5.1 E 17 22 9 12 1018.7 1015.1 0.0
20/09:00pm 20.0 18.2 9.6 51 5.7 SE 9 15 5 8 1018.1 1014.5 0.0
20/08:30pm 21.7 19.8 6.8 38 7.9 SW 6 7 3 4 1017.7 1014.1 0.0
20/08:00pm 22.0 20.1 7.4 39 7.8 SW 7 9 4 5 1017.3 1013.7 0.0
20/07:30pm 22.1 19.9 7.9 40 7.7 WSW 9 11 5 6 1017.0 1013.4 0.0
20/07:00pm 22.6 20.2 6.8 36 8.4 WSW 9 13 5 7 1016.2 1012.6 0.0
20/06:30pm 23.4 20.4 6.2 33 9.1 WSW 11 13 6 7 1015.9 1012.3 0.0
20/06:00pm 24.2 20.7 5.5 30 9.8 WSW 13 19 7 10 1015.5 1011.9 0.0
20/05:30pm 24.9 20.2 5.2 28 10.3 WSW 19 24 10 13 1014.9 1011.3 0.0
20/05:00pm 25.3 21.2 4.4 26 10.8 W 15 20 8 11 1014.5 1010.9 0.0
20/04:30pm 26.0 22.0 5.0 26 11.0 WSW 15 20 8 11 1014.4 1010.8 0.0
20/04:00pm 26.2 22.8 5.7 27 10.9 SSW 13 20 7 11 1014.0 1010.3 0.0
20/03:30pm 26.6 22.7 5.5 26 11.2 W 15 19 8 10 1013.9 1010.2 0.0
20/03:00pm 26.5 22.3 5.5 26 11.1 W 17 26 9 14 1014.1 1010.5 0.0
20/02:30pm 27.4 25.4 7.3 28 11.0 WSW 7 17 4 9 1014.1 1010.5 0.0
20/02:00pm 26.3 23.6 5.8 27 10.9 S 9 17 5 9 1014.2 1010.6 0.0
20/01:30pm 27.0 23.2 7.5 29 10.7 S 17 24 9 13 1014.4 1010.8 0.0
20/01:00pm 25.8 21.6 7.4 31 10.0 SW 19 28 10 15 1014.7 1011.1 0.0
20/12:30pm 25.9 22.4 7.0 30 10.2 S 15 24 8 13 1015.0 1011.4 0.0
20/12:00pm 25.7 21.0 5.3 27 10.7 SW 19 32 10 17 1015.5 1011.9 0.0
20/11:30am 24.7 20.8 6.9 32 9.6 SSW 17 24 9 13 1015.6 1012.0 0.0
20/11:00am 24.5 21.2 9.6 39 8.4 SSW 17 24 9 13 1016.0 1012.4 0.0
20/10:30am 23.9 19.6 7.1 34 9.0 S 19 24 10 13 1016.1 1012.5 0.0
20/10:00am 23.8 20.5 9.4 40 8.0 SSW 17 24 9 13 1016.2 1012.6 0.0
20/09:30am 21.9 19.4 12.2 54 5.6 SSW 17 24 9 13 1016.3 1012.7 0.0
20/09:00am 20.7 19.4 15.9 74 3.0 SW 17 26 9 14 1016.4 1012.8 15.0
20/08:30am 19.2 17.5 14.7 75 2.7 SSW 17 22 9 12 1016.3 1012.7 15.0
20/08:19am 19.4 18.5 15.9 80 2.1 SSW 15 22 8 12 1016.2 1012.6 15.0
20/08:02am 18.6 17.4 16.2 86 1.5 SW 17 22 9 12 1016.0 1012.4 15.0
20/08:00am 18.6 17.4 16.0 85 1.6 SSW 17 22 9 12 1016.0 1012.4 15.0
20/07:30am 18.2 16.8 16.9 92 0.8 SW 20 32 11 17 1015.5 1011.9 15.0
20/07:01am 17.5 15.7 16.0 91 0.9 SW 20 28 11 15 1015.0 1011.4 15.0
20/07:00am 17.4 15.6 15.9 91 0.9 SW 20 28 11 15 1015.0 1011.4 15.0
20/06:30am 17.3 16.3 16.7 96 0.4 WSW 17 24 9 13 1014.7 1011.1 15.0
20/06:00am 17.4 16.1 16.9 97 0.3 WSW 19 26 10 14 1014.2 1010.6 15.0
20/05:34am 17.6 17.3 17.3 98 0.2 W 15 22 8 12 1013.6 1009.9 15.0
20/05:30am 17.6 17.3 17.3 98 0.2 W 15 22 8 12 1013.4 1009.8 15.0
20/05:03am 17.7 16.9 17.2 97 0.3 W 17 22 9 12 1013.1 1009.5 15.0
20/05:00am 17.8 17.1 17.3 97 0.3 WSW 17 22 9 12 1013.1 1009.5 15.0
20/04:34am 17.9 17.6 17.4 97 0.3 WSW 15 19 8 10 1012.9 1009.3 15.0
20/04:30am 17.9 17.2 17.4 97 0.3 WSW 17 20 9 11 1012.8 1009.2 15.0
20/04:00am 18.1 18.3 17.6 97 0.3 W 13 17 7 9 1012.6 1008.9 15.0
20/03:30am 18.1 18.1 17.3 95 0.5 WSW 13 17 7 9 1012.4 1008.7 14.8
20/03:00am 18.1 19.5 17.8 98 0.2 WSW 7 9 4 5 1012.0 1008.3 14.8
20/02:44am 18.0 19.0 17.8 99 0.1 WSW 9 13 5 7 1012.1 1008.4 14.8
20/02:30am 18.0 18.3 17.8 99 0.1 SW 13 17 7 9 1012.1 1008.4 14.8
20/02:00am 18.0 17.1 17.8 99 0.1 WSW 19 24 10 13 1012.3 1008.6 14.8
20/01:57am 18.0 17.1 17.8 99 0.1 WSW 19 24 10 13 1012.6 1008.9 14.8
20/01:30am 18.4 17.6 17.1 92 0.8 NW 17 28 9 15 1012.6 1008.9 14.8
20/01:00am 18.9 17.9 16.7 87 1.4 NNE 17 20 9 11 1012.2 1008.5 14.8
20/12:30am 18.4 18.7 17.8 96 0.4 NE 13 17 7 9 1012.4 1008.7 14.8
20/12:00am 18.2 19.3 17.9 98 0.2 NNW 9 13 5 7 1013.3 1009.7 14.8
 
Date/Time
EST
Temp
°C
App
Temp
°C
Dew
Point
°C
Rel
Hum
%
Delta-T
°C
Wind Press
QNH
hPa
Press
MSL
hPa
Rain since
9am
mm
Dir  Spd
km/h
Gust
km/h
Spd
kts
Gust
kts
19/11:30pm 18.7 20.4 18.0 96 0.4 N 6 13 3 7 1013.3 1009.7 14.6
19/11:00pm 18.1 20.9 17.9 99 0.1 CALM 0 4 0 2 1013.9 1010.2 14.6
19/10:33pm 18.0 19.0 17.8 99 0.1 WSW 9 13 5 7 1014.5 1010.9 14.4
19/10:30pm 18.1 19.2 17.9 99 0.1 WSW 9 13 5 7 1014.5 1010.9 14.4
19/10:00pm 18.2 17.7 17.9 98 0.2 SW 17 19 9 10 1014.4 1010.8 11.6
19/09:30pm 18.2 17.6 17.6 96 0.4 WSW 17 24 9 13 1014.8 1011.2 8.6
19/09:23pm 18.3 16.3 17.3 94 0.6 WSW 24 39 13 21 1014.6 1011.0 8.2
19/09:20pm 18.5 16.1 17.3 93 0.7 SW 26 39 14 21 1014.6 1011.0 7.6
19/09:00pm 19.4 17.7 18.2 93 0.8 SW 24 35 13 19 1014.0 1010.3 7.0
19/08:50pm 20.1 19.7 18.8 92 0.8 WSW 19 28 10 15 1013.8 1010.1 7.0
19/08:30pm 20.5 22.1 19.2 92 0.8 W 9 13 5 7 1013.4 1009.8 7.0
19/08:00pm 20.4 22.0 19.2 93 0.8 WNW 9 11 5 6 1013.1 1009.5 7.0
19/07:30pm 20.4 22.0 19.1 92 0.8 NNW 9 11 5 6 1012.4 1008.7 7.0
19/07:00pm 20.5 22.8 19.5 94 0.7 W 6 7 3 4 1012.1 1008.4 7.0
19/06:30pm 20.5 22.6 19.0 91 1.0 NNE 6 9 3 5 1011.3 1007.7 7.0
19/06:00pm 20.5 22.6 19.3 93 0.8 NNW 7 9 4 5 1011.1 1007.4 7.0
19/05:30pm 20.6 23.0 19.6 94 0.7 ENE 6 11 3 6 1009.8 1006.1 7.0
19/05:00pm 20.3 20.3 19.0 92 0.8 NNW 17 22 9 12 1011.1 1007.4 6.6
19/04:30pm 20.8 21.7 20.1 96 0.5 NW 15 19 8 10 1011.0 1007.3 5.6
19/04:02pm 20.3 21.1 19.1 93 0.8 NNW 13 17 7 9 1010.8 1007.1 5.2
19/04:00pm 20.2 20.8 18.7 91 1.0 NNW 13 17 7 9 1010.8 1007.1 5.2
19/03:31pm 22.7 21.5 19.3 81 2.2 WNW 24 30 13 16 1011.0 1007.3 1.8
19/03:30pm 22.9 21.7 19.3 80 2.4 WNW 24 30 13 16 1011.0 1007.3 1.4
19/03:00pm 25.6 24.6 18.0 63 4.9 WNW 20 26 11 14 1010.8 1007.1 0.4
19/02:30pm 25.7 24.4 16.8 58 5.7 NW 19 26 10 14 1011.1 1007.4 0.4
19/02:00pm 26.0 24.9 17.4 59 5.5 NW 19 28 10 15 1011.4 1007.8 0.4
19/01:30pm 25.3 23.6 17.2 61 5.2 NW 22 28 12 15 1011.5 1007.9 0.4
19/01:00pm 25.5 25.0 17.7 62 5.0 NW 17 22 9 12 1012.0 1008.3 0.4
19/12:30pm 25.2 25.2 17.1 60 5.2 NW 13 17 7 9 1012.0 1008.3 0.4
19/12:00pm 24.9 23.8 16.3 59 5.4 NNW 17 22 9 12 1012.2 1008.5 0.4
19/11:30am 23.8 24.8 17.8 69 3.8 NW 9 13 5 7 1012.6 1008.9 0.4
19/11:00am 22.5 23.8 17.6 74 3.1 WNW 7 11 4 6 1012.6 1008.9 0.4
19/10:30am 21.3 22.4 17.1 77 2.6 N 7 11 4 6 1012.6 1008.9 0.4
19/10:00am 21.1 21.9 17.3 79 2.4 NNW 9 11 5 6 1012.5 1008.8 0.4
19/09:30am 20.9 22.1 17.3 80 2.3 W 7 11 4 6 1012.9 1009.3 0.2
19/09:00am 21.3 22.5 16.9 76 2.8 NNE 6 7 3 4 1012.5 1008.8 5.8
19/08:30am 20.7 22.3 18.3 86 1.5 E 7 9 4 5 1012.6 1008.9 5.6
19/08:00am 20.3 21.7 18.6 90 1.1 NNE 9 13 5 7 1012.5 1008.8 5.6
19/07:30am 20.6 23.1 18.2 86 1.5 NNE 2 7 1 4 1012.5 1008.8 5.6

Latest Capital City Observations: Canberra | Sydney | Melbourne | Brisbane | Adelaide | Perth | Hobart | Darwin

Other Formats:

Comma delimited format used in spreadsheet applications
http://www.bom.gov.au/fwo/IDQ60901/IDQ60901.95551.axf

JavaScript Object Notation format (JSON) in row-major order
http://www.bom.gov.au/fwo/IDQ60901/IDQ60901.95551.json